Time;durP1;ratioP1;P1;durP2;ratioP2;P2;SDS_P1;SDS_P2;PMS_P1;PMS_P2;Temp;Humidity;BMP_temperature;BMP_pressure;BME280_temperature;BME280_humidity;BME280_pressure;Samples;Min_cycle;Max_cycle;Signal;HPM_P1;HPM_P2
2022/09/13 00:00:50;;;;;;;6.23;5.63;;;;;;;;;;5056350;28;20235;-78
2022/09/13 00:03:19;;;;;;;5.93;5.27;;;;;;;;;;5053720;28;20664;-75
2022/09/13 00:05:48;;;;;;;6.43;5.67;;;;;;;;;;5049682;28;20252;-75
2022/09/13 00:08:17;;;;;;;6.93;5.43;;;;;;;;;;5050614;28;20240;-76
2022/09/13 00:10:47;;;;;;;6.27;5.67;;;;;;;;;;5056558;28;20716;-75
2022/09/13 00:13:16;;;;;;;5.80;5.30;;;;;;;;;;5056117;28;20257;-76
2022/09/13 00:15:45;;;;;;;6.03;5.43;;;;;;;;;;5053254;28;20231;-76
2022/09/13 00:18:14;;;;;;;6.53;5.83;;;;;;;;;;5056103;28;20207;-76
2022/09/13 00:20:45;;;;;;;8.20;5.67;;;;;;;;;;5052715;28;20298;-75
2022/09/13 00:23:14;;;;;;;5.80;5.30;;;;;;;;;;5056431;28;20589;-78
2022/09/13 00:25:42;;;;;;;6.33;5.53;;;;;;;;;;5054831;28;20214;-74
2022/09/13 00:28:12;;;;;;;7.05;5.50;;;;;;;;;;5044509;28;20267;-76
2022/09/13 00:30:40;;;;;;;6.20;5.60;;;;;;;;;;5056957;28;20307;-76
2022/09/13 00:33:09;;;;;;;6.60;5.63;;;;;;;;;;5050336;28;20657;-78
2022/09/13 00:35:37;;;;;;;6.37;5.70;;;;;;;;;;5055710;28;20256;-76
2022/09/13 00:38:05;;;;;;;6.30;5.70;;;;;;;;;;5055765;28;20230;-78
2022/09/13 00:40:37;;;;;;;6.23;5.60;;;;;;;;;;5057864;28;20235;-78
2022/09/13 00:43:07;;;;;;;5.90;5.40;;;;;;;;;;5059558;28;20211;-78
2022/09/13 00:45:36;;;;;;;7.43;6.10;;;;;;;;;;5053809;28;20234;-76
2022/09/13 00:48:06;;;;;;;7.93;5.67;;;;;;;;;;5057044;28;20579;-76
2022/09/13 00:50:36;;;;;;;5.87;5.27;;;;;;;;;;5053865;28;20306;-76
2022/09/13 00:53:09;;;;;;;6.00;5.40;;;;;;;;;;5054502;28;20663;-75
2022/09/13 00:55:39;;;;;;;6.67;5.50;;;;;;;;;;5043331;28;20234;-76
2022/09/13 00:58:10;;;;;;;6.20;5.60;;;;;;;;;;5051205;28;20242;-76
2022/09/13 01:00:40;;;;;;;6.20;5.60;;;;;;;;;;5052399;28;20234;-76
2022/09/13 01:03:11;;;;;;;5.83;5.23;;;;;;;;;;5053919;28;20206;-76
2022/09/13 01:05:42;;;;;;;6.83;5.40;;;;;;;;;;5040826;28;20250;-76
2022/09/13 01:08:14;;;;;;;6.50;5.90;;;;;;;;;;5054674;28;20215;-76
2022/09/13 01:10:43;;;;;;;6.27;5.67;;;;;;;;;;5052872;28;20306;-76
2022/09/13 01:13:14;;;;;;;6.53;5.73;;;;;;;;;;5054377;28;20259;-76
2022/09/13 01:15:45;;;;;;;6.00;5.40;;;;;;;;;;5054553;28;20683;-76
2022/09/13 01:18:13;;;;;;;6.53;5.93;;;;;;;;;;5049702;28;20295;-76
2022/09/13 01:20:47;;;;;;;5.97;5.43;;;;;;;;;;5038574;28;20192;-76
2022/09/13 01:23:32;;;;;;;6.50;5.90;;;;;;;;;;5041458;28;20203;-76
2022/09/13 01:26:12;;;;;;;7.87;6.17;;;;;;;;;;5046268;28;20274;-76
2022/09/13 01:28:47;;;;;;;6.00;5.40;;;;;;;;;;5049158;28;20285;-76
2022/09/13 01:31:21;;;;;;;5.50;5.00;;;;;;;;;;5052180;28;20310;-77
2022/09/13 01:33:57;;;;;;;5.55;5.05;;;;;;;;;;5049949;28;20661;-75
2022/09/13 01:36:32;;;;;;;5.47;4.97;;;;;;;;;;5046018;28;20249;-76
2022/09/13 01:39:03;;;;;;;5.30;4.85;;;;;;;;;;5054301;28;20289;-76
2022/09/13 01:41:41;;;;;;;4.80;4.40;;;;;;;;;;5050542;28;20227;-76
2022/09/13 01:44:14;;;;;;;5.10;4.70;;;;;;;;;;5043532;28;20206;-76
2022/09/13 01:46:48;;;;;;;5.20;4.70;;;;;;;;;;5040012;28;20302;-76
2022/09/13 01:49:20;;;;;;;5.60;4.68;;;;;;;;;;5049578;28;20229;-76
2022/09/13 01:51:51;;;;;;;5.10;4.60;;;;;;;;;;5054005;28;20231;-76
2022/09/13 01:54:21;;;;;;;5.45;4.50;;;;;;;;;;5053567;28;20234;-76
2022/09/13 01:59:31;;;;;;;5.20;4.80;;;;;;;;;;5051425;28;20274;-75
2022/09/13 02:02:04;;;;;;;5.85;4.57;;;;;;;;;;5045103;28;20311;-76
2022/09/13 02:04:37;;;;;;;5.03;4.60;;;;;;;;;;5042744;28;20199;-76
2022/09/13 02:07:07;;;;;;;5.75;5.15;;;;;;;;;;5053938;28;20207;-77
2022/09/13 02:09:39;;;;;;;6.18;4.78;;;;;;;;;;5054119;28;20211;-77
2022/09/13 02:12:09;;;;;;;5.55;4.88;;;;;;;;;;5040976;28;20231;-77
2022/09/13 02:14:38;;;;;;;5.15;4.75;;;;;;;;;;5048699;28;20204;-76
2022/09/13 02:17:12;;;;;;;6.60;4.82;;;;;;;;;;5034215;28;20240;-76
2022/09/13 02:19:42;;;;;;;5.65;5.15;;;;;;;;;;5047741;28;20286;-77
2022/09/13 02:22:12;;;;;;;6.63;5.22;;;;;;;;;;5054492;28;20215;-77
2022/09/13 02:24:42;;;;;;;6.03;5.43;;;;;;;;;;5055356;28;20218;-77
2022/09/13 02:27:13;;;;;;;5.82;5.25;;;;;;;;;;5054776;28;20235;-76
2022/09/13 02:29:43;;;;;;;6.60;6.00;;;;;;;;;;5054158;28;20211;-76
2022/09/13 02:32:15;;;;;;;6.60;6.00;;;;;;;;;;5054079;28;20243;-76
2022/09/13 02:34:46;;;;;;;6.88;6.05;;;;;;;;;;5053931;28;20230;-76
2022/09/13 02:37:15;;;;;;;6.38;5.85;;;;;;;;;;5053572;28;20195;-76
2022/09/13 02:39:45;;;;;;;6.35;5.75;;;;;;;;;;5053565;28;20298;-76
2022/09/13 02:42:16;;;;;;;6.70;6.00;;;;;;;;;;5053768;28;20700;-76
2022/09/13 02:44:46;;;;;;;7.30;6.10;;;;;;;;;;5049178;28;20211;-76
2022/09/13 02:47:21;;;;;;;6.35;5.75;;;;;;;;;;5047221;28;20578;-76
2022/09/13 02:49:55;;;;;;;8.57;6.38;;;;;;;;;;5053372;28;20264;-76
2022/09/13 02:52:30;;;;;;;7.07;6.38;;;;;;;;;;5051929;28;20691;-76
2022/09/13 02:55:04;;;;;;;7.18;6.30;;;;;;;;;;5053368;28;20273;-76
2022/09/13 02:57:34;;;;;;;6.73;6.03;;;;;;;;;;5034404;28;20378;-76
2022/09/13 03:00:03;;;;;;;7.32;6.45;;;;;;;;;;5047268;28;20223;-77
2022/09/13 03:02:34;;;;;;;9.10;7.00;;;;;;;;;;5033455;28;20259;-77
2022/09/13 03:05:03;;;;;;;7.30;6.60;;;;;;;;;;5044044;28;20207;-77
2022/09/13 03:07:31;;;;;;;7.47;6.77;;;;;;;;;;5053580;28;20690;-77
2022/09/13 03:10:03;;;;;;;8.35;7.55;;;;;;;;;;5053290;28;20286;-80
2022/09/13 03:12:44;;;;;;;7.35;6.68;;;;;;;;;;5035636;28;20267;-77
2022/09/13 03:15:19;;;;;;;8.10;7.38;;;;;;;;;;5035064;28;20294;-76
2022/09/13 03:17:54;;;;;;;7.27;6.63;;;;;;;;;;5050291;28;20246;-76
2022/09/13 03:20:26;;;;;;;7.60;6.53;;;;;;;;;;5044743;28;20187;-76
2022/09/13 03:23:13;;;;;;;7.57;6.95;;;;;;;;;;5053201;28;20309;-76
2022/09/13 03:25:54;;;;;;;7.37;6.77;;;;;;;;;;5033486;28;20625;-77
2022/09/13 03:28:27;;;;;;;7.80;7.00;;;;;;;;;;5037489;28;20249;-76
2022/09/13 03:31:00;;;;;;;9.17;6.53;;;;;;;;;;5047244;28;20708;-76
2022/09/13 03:33:31;;;;;;;8.23;7.43;;;;;;;;;;5033036;28;20203;-76
2022/09/13 03:36:06;;;;;;;7.97;7.17;;;;;;;;;;5051076;28;20602;-76
2022/09/13 03:38:38;;;;;;;7.97;7.17;;;;;;;;;;5052888;28;20281;-76
2022/09/13 03:41:08;;;;;;;8.53;7.60;;;;;;;;;;5054699;28;20310;-76
2022/09/13 03:43:39;;;;;;;8.33;7.57;;;;;;;;;;5041649;28;20208;-76
2022/09/13 03:46:10;;;;;;;8.60;7.80;;;;;;;;;;5043746;28;20265;-76
2022/09/13 03:48:41;;;;;;;8.67;7.83;;;;;;;;;;5056543;28;20274;-74
2022/09/13 03:51:10;;;;;;;8.77;7.97;;;;;;;;;;5056667;28;20238;-75
2022/09/13 03:53:41;;;;;;;8.37;7.67;;;;;;;;;;5057164;28;20638;-77
2022/09/13 03:56:14;;;;;;;10.03;7.43;;;;;;;;;;5040732;28;20614;-77
2022/09/13 03:58:43;;;;;;;10.77;8.00;;;;;;;;;;5042756;28;20231;-76
2022/09/13 04:01:11;;;;;;;7.87;7.10;;;;;;;;;;5056850;28;20222;-77
2022/09/13 04:03:41;;;;;;;8.70;7.80;;;;;;;;;;5056612;28;20695;-75
2022/09/13 04:06:09;;;;;;;9.00;8.10;;;;;;;;;;5036314;28;20295;-76
2022/09/13 04:08:38;;;;;;;9.03;8.13;;;;;;;;;;5053499;28;20302;-76
2022/09/13 04:11:08;;;;;;;10.53;8.57;;;;;;;;;;5056052;28;20282;-76
2022/09/13 04:13:36;;;;;;;8.27;7.57;;;;;;;;;;5056089;28;20187;-75
2022/09/13 04:16:06;;;;;;;9.80;7.67;;;;;;;;;;5054873;28;20286;-76
2022/09/13 04:18:35;;;;;;;9.03;8.20;;;;;;;;;;5057036;28;20207;-78
2022/09/13 04:21:05;;;;;;;9.13;8.33;;;;;;;;;;5055791;28;20254;-76
2022/09/13 04:23:33;;;;;;;11.40;8.60;;;;;;;;;;5056201;28;20203;-76
2022/09/13 04:26:02;;;;;;;9.40;8.50;;;;;;;;;;5056305;28;20282;-76
2022/09/13 04:28:30;;;;;;;9.10;8.30;;;;;;;;;;5055895;28;20740;-76
2022/09/13 04:30:59;;;;;;;9.33;8.27;;;;;;;;;;5055918;28;20314;-75
2022/09/13 04:33:27;;;;;;;9.30;8.23;;;;;;;;;;5055873;28;20307;-76
2022/09/13 04:35:58;;;;;;;9.30;8.17;;;;;;;;;;5055780;28;20242;-76
2022/09/13 04:38:30;;;;;;;9.57;8.67;;;;;;;;;;5056032;28;20226;-76
2022/09/13 04:40:58;;;;;;;10.23;8.20;;;;;;;;;;5055703;28;20306;-76
2022/09/13 04:43:27;;;;;;;8.67;7.87;;;;;;;;;;5055865;28;20371;-76
2022/09/13 04:45:55;;;;;;;8.25;7.45;;;;;;;;;;5056166;28;20618;-76
2022/09/13 04:48:24;;;;;;;9.57;7.83;;;;;;;;;;5056020;28;20261;-76
2022/09/13 04:50:53;;;;;;;7.87;7.17;;;;;;;;;;5055281;28;20242;-76
2022/09/13 04:53:21;;;;;;;8.97;7.70;;;;;;;;;;5055603;28;20282;-77
2022/09/13 04:55:51;;;;;;;8.60;7.80;;;;;;;;;;5055940;28;20315;-77
2022/09/13 04:58:21;;;;;;;8.82;7.93;;;;;;;;;;5048688;28;20242;-77
2022/09/13 05:00:55;;;;;;;8.80;8.00;;;;;;;;;;5036035;28;20294;-76
2022/09/13 05:03:23;;;;;;;8.95;7.80;;;;;;;;;;5043328;28;20214;-78
2022/09/13 05:05:52;;;;;;;8.25;7.45;;;;;;;;;;5056168;28;20290;-77
2022/09/13 05:08:20;;;;;;;8.43;7.63;;;;;;;;;;5056129;28;20252;-77
2022/09/13 05:10:50;;;;;;;8.15;7.43;;;;;;;;;;5044959;28;20298;-77
2022/09/13 05:13:18;;;;;;;8.48;7.57;;;;;;;;;;5055752;28;20247;-77
2022/09/13 05:15:47;;;;;;;8.02;7.22;;;;;;;;;;5056014;28;20671;-78
2022/09/13 05:18:16;;;;;;;8.87;7.37;;;;;;;;;;5056202;28;20214;-77
2022/09/13 05:20:44;;;;;;;7.97;7.27;;;;;;;;;;5055866;28;20241;-77
2022/09/13 05:23:13;;;;;;;8.10;7.30;;;;;;;;;;5056081;28;20203;-77
2022/09/13 05:25:41;;;;;;;7.63;6.82;;;;;;;;;;5056225;28;20256;-77
2022/09/13 05:28:11;;;;;;;8.25;7.53;;;;;;;;;;5056144;28;20246;-79
2022/09/13 05:30:39;;;;;;;7.63;6.93;;;;;;;;;;5056981;28;20239;-78
2022/09/13 05:33:09;;;;;;;8.55;7.65;;;;;;;;;;5056507;28;20219;-78
2022/09/13 05:35:41;;;;;;;8.48;7.55;;;;;;;;;;5056539;28;20206;-78
2022/09/13 05:38:09;;;;;;;8.05;7.32;;;;;;;;;;5056109;28;20210;-78
2022/09/13 05:40:38;;;;;;;8.63;7.72;;;;;;;;;;5056089;28;20242;-77
2022/09/13 05:43:06;;;;;;;7.72;7.03;;;;;;;;;;5056331;28;20235;-77
2022/09/13 05:45:36;;;;;;;7.30;6.63;;;;;;;;;;5056435;28;20292;-78
2022/09/13 05:48:04;;;;;;;8.10;7.40;;;;;;;;;;5055269;28;20239;-78
2022/09/13 05:50:33;;;;;;;8.23;7.43;;;;;;;;;;5054462;28;20242;-78
2022/09/13 05:53:21;;;;;;;8.45;7.57;;;;;;;;;;5054243;28;20315;-78
2022/09/13 05:55:49;;;;;;;8.18;7.38;;;;;;;;;;5054388;28;20243;-77
2022/09/13 05:58:18;;;;;;;7.95;6.90;;;;;;;;;;5055623;28;20711;-77
2022/09/13 06:00:53;;;;;;;8.43;7.53;;;;;;;;;;5054977;28;20289;-77
2022/09/13 06:03:21;;;;;;;7.63;6.85;;;;;;;;;;5054130;28;20179;-77
2022/09/13 06:05:50;;;;;;;8.35;7.53;;;;;;;;;;5054490;28;20210;-77
2022/09/13 06:08:19;;;;;;;7.95;7.25;;;;;;;;;;5054433;28;20230;-77
2022/09/13 06:10:53;;;;;;;7.85;7.10;;;;;;;;;;5054426;28;20277;-77
2022/09/13 06:13:22;;;;;;;8.27;7.45;;;;;;;;;;5054344;28;20254;-77
2022/09/13 06:15:52;;;;;;;8.18;7.43;;;;;;;;;;5054253;28;20199;-78
2022/09/13 06:18:20;;;;;;;8.32;7.35;;;;;;;;;;5054304;28;20207;-76
2022/09/13 06:20:49;;;;;;;8.68;7.70;;;;;;;;;;5054716;28;20246;-77
2022/09/13 06:23:17;;;;;;;9.10;7.45;;;;;;;;;;5054306;28;20245;-77
2022/09/13 06:25:46;;;;;;;8.23;7.32;;;;;;;;;;5054815;28;20234;-77
2022/09/13 06:28:14;;;;;;;8.88;7.60;;;;;;;;;;5054240;28;20298;-77
2022/09/13 06:30:42;;;;;;;8.18;7.47;;;;;;;;;;5053867;28;20199;-77
2022/09/13 06:33:12;;;;;;;8.23;7.43;;;;;;;;;;5054028;28;20285;-77
2022/09/13 06:35:41;;;;;;;8.70;7.68;;;;;;;;;;5053698;28;20293;-77
2022/09/13 06:38:09;;;;;;;8.00;7.20;;;;;;;;;;5053182;28;20231;-77
2022/09/13 06:40:38;;;;;;;8.95;8.05;;;;;;;;;;5053774;28;20569;-76
2022/09/13 06:43:07;;;;;;;8.68;7.38;;;;;;;;;;5054080;28;20202;-78
2022/09/13 06:45:36;;;;;;;8.77;7.93;;;;;;;;;;5052249;28;20286;-78
2022/09/13 06:48:04;;;;;;;8.85;7.95;;;;;;;;;;5053702;28;20245;-78
2022/09/13 06:50:34;;;;;;;8.93;7.88;;;;;;;;;;5053538;28;20243;-78
2022/09/13 06:53:02;;;;;;;8.70;7.90;;;;;;;;;;5053800;28;20646;-77
2022/09/13 06:55:31;;;;;;;8.82;7.65;;;;;;;;;;5053742;28;20238;-77
2022/09/13 06:57:59;;;;;;;8.68;7.88;;;;;;;;;;5053658;28;20724;-76
2022/09/13 07:00:27;;;;;;;8.95;7.65;;;;;;;;;;5053518;28;20333;-76
2022/09/13 07:02:56;;;;;;;9.40;8.52;;;;;;;;;;5053512;28;20219;-77
2022/09/13 07:05:24;;;;;;;9.18;8.23;;;;;;;;;;5053452;28;20630;-77
2022/09/13 07:07:54;;;;;;;8.48;7.68;;;;;;;;;;5053236;28;20291;-77
2022/09/13 07:10:23;;;;;;;8.52;7.72;;;;;;;;;;5053163;28;20238;-76
2022/09/13 07:12:51;;;;;;;10.40;7.80;;;;;;;;;;5052666;28;20284;-77
2022/09/13 07:15:20;;;;;;;9.65;8.20;;;;;;;;;;5055890;28;20245;-77
2022/09/13 07:17:48;;;;;;;8.43;7.60;;;;;;;;;;5057702;28;20668;-78
2022/09/13 07:20:16;;;;;;;10.23;8.38;;;;;;;;;;5057419;28;20218;-77
2022/09/13 07:22:45;;;;;;;8.98;8.07;;;;;;;;;;5057314;28;20257;-78
2022/09/13 07:25:15;;;;;;;9.10;8.20;;;;;;;;;;5057760;28;20294;-78
2022/09/13 07:27:43;;;;;;;8.93;8.02;;;;;;;;;;5057356;28;20203;-78
2022/09/13 07:30:12;;;;;;;7.95;7.25;;;;;;;;;;5057587;28;20668;-78
2022/09/13 07:32:41;;;;;;;9.50;8.60;;;;;;;;;;5057221;28;20226;-78
2022/09/13 07:35:10;;;;;;;8.93;8.02;;;;;;;;;;5057555;28;22202;-78
2022/09/13 07:37:41;;;;;;;8.77;7.90;;;;;;;;;;5057446;28;20286;-78
2022/09/13 07:40:10;;;;;;;8.75;7.93;;;;;;;;;;5057196;28;20237;-78
2022/09/13 07:42:40;;;;;;;9.45;8.48;;;;;;;;;;5057678;28;20229;-78
2022/09/13 07:45:09;;;;;;;9.57;8.05;;;;;;;;;;5057412;28;20231;-78
2022/09/13 07:47:37;;;;;;;10.05;8.35;;;;;;;;;;5057239;28;20739;-78
2022/09/13 07:50:06;;;;;;;9.43;8.25;;;;;;;;;;5056917;28;20246;-78
2022/09/13 07:52:36;;;;;;;9.55;8.55;;;;;;;;;;5057033;28;20720;-78
2022/09/13 07:55:05;;;;;;;9.82;8.77;;;;;;;;;;5057387;28;20220;-78
2022/09/13 07:57:33;;;;;;;10.40;9.10;;;;;;;;;;5057264;28;20202;-78
2022/09/13 08:00:04;;;;;;;10.63;9.52;;;;;;;;;;5057210;28;20293;-78
2022/09/13 08:02:33;;;;;;;10.23;9.23;;;;;;;;;;5057223;28;20245;-78
2022/09/13 08:05:01;;;;;;;11.60;9.15;;;;;;;;;;5056796;28;20197;-78
2022/09/13 08:07:31;;;;;;;10.00;9.00;;;;;;;;;;5056707;28;20294;-78
2022/09/13 08:10:00;;;;;;;9.93;8.93;;;;;;;;;;5057276;28;20661;-78
2022/09/13 08:12:28;;;;;;;11.13;9.07;;;;;;;;;;5057490;28;20267;-78
2022/09/13 08:14:57;;;;;;;10.52;9.52;;;;;;;;;;5058931;28;20199;-77
2022/09/13 08:17:27;;;;;;;10.90;9.60;;;;;;;;;;5057378;28;20230;-78
2022/09/13 08:19:55;;;;;;;10.98;9.90;;;;;;;;;;5057121;28;20723;-76
2022/09/13 08:22:23;;;;;;;11.52;10.52;;;;;;;;;;5037824;28;20248;-78
2022/09/13 08:24:52;;;;;;;11.23;10.15;;;;;;;;;;5037646;28;20295;-78
2022/09/13 08:27:20;;;;;;;12.05;10.88;;;;;;;;;;5037062;28;20212;-78
2022/09/13 08:29:48;;;;;;;12.02;10.80;;;;;;;;;;5037269;28;20208;-78
2022/09/13 08:32:17;;;;;;;12.50;11.13;;;;;;;;;;5037556;28;20631;-78
2022/09/13 08:34:47;;;;;;;13.30;11.93;;;;;;;;;;5036813;28;20297;-75
2022/09/13 08:37:15;;;;;;;13.23;11.30;;;;;;;;;;5040101;28;20695;-75
2022/09/13 08:39:43;;;;;;;13.25;11.45;;;;;;;;;;5055979;28;20703;-75
2022/09/13 08:42:25;;;;;;;13.55;11.13;;;;;;;;;;5055783;28;20642;-75
2022/09/13 08:44:54;;;;;;;13.65;12.25;;;;;;;;;;5055417;28;20188;-75
2022/09/13 08:47:27;;;;;;;13.63;12.32;;;;;;;;;;5055482;28;20211;-75
2022/09/13 08:50:00;;;;;;;13.95;12.15;;;;;;;;;;5055576;28;20265;-74
2022/09/13 08:52:31;;;;;;;13.68;11.98;;;;;;;;;;5055353;28;20223;-74
2022/09/13 08:55:02;;;;;;;14.32;12.65;;;;;;;;;;5055713;28;20314;-75
2022/09/13 08:57:33;;;;;;;13.68;12.38;;;;;;;;;;5055382;28;20242;-74
2022/09/13 09:00:04;;;;;;;14.27;12.77;;;;;;;;;;5055141;28;20246;-74
2022/09/13 09:02:42;;;;;;;13.77;12.07;;;;;;;;;;5055419;28;20227;-75
2022/09/13 09:05:15;;;;;;;15.57;12.77;;;;;;;;;;5055271;28;20203;-74
2022/09/13 09:07:45;;;;;;;14.45;12.95;;;;;;;;;;5043052;28;20227;-74
2022/09/13 09:10:16;;;;;;;14.95;13.27;;;;;;;;;;5035752;28;20701;-74
2022/09/13 09:12:46;;;;;;;16.17;14.35;;;;;;;;;;5049531;28;20242;-75
2022/09/13 09:15:16;;;;;;;15.18;13.68;;;;;;;;;;5055485;28;20633;-76
2022/09/13 09:17:48;;;;;;;15.88;13.73;;;;;;;;;;5054834;28;20314;-75
2022/09/13 09:20:25;;;;;;;17.67;15.32;;;;;;;;;;5055059;28;20298;-74
2022/09/13 09:22:54;;;;;;;18.60;16.55;;;;;;;;;;5054701;28;20297;-74
2022/09/13 09:25:24;;;;;;;12.90;11.60;;;;;;;;;;5054833;28;20294;-74
2022/09/13 09:27:52;;;;;;;17.50;15.20;;;;;;;;;;5043936;28;20637;-74
2022/09/13 09:30:20;;;;;;;16.23;14.55;;;;;;;;;;5034894;28;20216;-74
2022/09/13 09:33:07;;;;;;;15.65;13.52;;;;;;;;;;5034586;28;20228;-74
2022/09/13 09:35:45;;;;;;;15.18;13.60;;;;;;;;;;5025398;28;20314;-74
2022/09/13 09:38:30;;;;;;;16.60;14.68;;;;;;;;;;5048447;28;20235;-74
2022/09/13 09:40:59;;;;;;;17.15;15.23;;;;;;;;;;5053259;28;20619;-73
2022/09/13 09:43:32;;;;;;;19.80;15.18;;;;;;;;;;5054393;28;20275;-74
2022/09/13 09:46:01;;;;;;;16.83;15.13;;;;;;;;;;5054615;28;20606;-74
2022/09/13 09:48:36;;;;;;;17.80;15.00;;;;;;;;;;5054466;28;20207;-74
2022/09/13 09:51:09;;;;;;;15.73;14.07;;;;;;;;;;5054248;28;20284;-74
2022/09/13 09:53:40;;;;;;;15.60;14.00;;;;;;;;;;5053713;28;20613;-74
2022/09/13 09:56:16;;;;;;;16.58;14.60;;;;;;;;;;5054417;28;20237;-74
2022/09/13 09:58:45;;;;;;;16.58;14.77;;;;;;;;;;5054403;28;20234;-74
2022/09/13 10:01:19;;;;;;;17.33;15.43;;;;;;;;;;5053810;28;20365;-74
2022/09/13 10:03:51;;;;;;;17.80;14.77;;;;;;;;;;5054524;28;20252;-74
2022/09/13 10:06:22;;;;;;;16.15;14.55;;;;;;;;;;5053853;28;20249;-75
2022/09/13 10:08:56;;;;;;;16.70;14.77;;;;;;;;;;5054081;28;20239;-74
2022/09/13 10:11:26;;;;;;;16.83;14.55;;;;;;;;;;5053742;28;20276;-74
2022/09/13 10:14:01;;;;;;;17.05;15.35;;;;;;;;;;5053386;28;20294;-74
2022/09/13 10:16:30;;;;;;;17.88;16.23;;;;;;;;;;5053962;28;20663;-74
2022/09/13 10:19:14;;;;;;;17.55;15.43;;;;;;;;;;5053918;28;20286;-74
2022/09/13 10:21:44;;;;;;;16.38;14.73;;;;;;;;;;5053785;28;20226;-74
2022/09/13 10:24:18;;;;;;;15.60;14.13;;;;;;;;;;5053374;28;20282;-74
2022/09/13 10:26:46;;;;;;;24.73;20.83;;;;;;;;;;5053506;28;20187;-74
2022/09/13 10:29:16;;;;;;;16.50;13.90;;;;;;;;;;5053400;28;20199;-75
2022/09/13 10:31:46;;;;;;;15.77;13.45;;;;;;;;;;5054339;28;20739;-76
2022/09/13 10:34:19;;;;;;;16.10;13.80;;;;;;;;;;5053971;28;20648;-74
2022/09/13 10:36:55;;;;;;;14.23;12.73;;;;;;;;;;5053218;28;20199;-74
2022/09/13 10:39:24;;;;;;;15.43;13.80;;;;;;;;;;5053245;28;20241;-74
2022/09/13 10:41:55;;;;;;;13.20;11.80;;;;;;;;;;5053723;28;20750;-75
2022/09/13 10:44:26;;;;;;;12.05;10.35;;;;;;;;;;5052871;28;20242;-74
2022/09/13 10:46:55;;;;;;;12.63;10.60;;;;;;;;;;5053157;28;20330;-74
2022/09/13 10:49:35;;;;;;;11.80;10.65;;;;;;;;;;5052810;28;20293;-74
2022/09/13 10:52:19;;;;;;;11.27;9.45;;;;;;;;;;5053749;28;20223;-74
2022/09/13 10:54:48;;;;;;;12.38;9.55;;;;;;;;;;5052926;28;20227;-75
2022/09/13 10:57:32;;;;;;;10.27;9.05;;;;;;;;;;5053247;28;20238;-74
2022/09/13 11:00:00;;;;;;;9.90;8.88;;;;;;;;;;5053050;28;20233;-75
2022/09/13 11:02:37;;;;;;;12.73;10.15;;;;;;;;;;5053157;28;20249;-74
2022/09/13 11:05:10;;;;;;;12.20;10.00;;;;;;;;;;5052998;28;20245;-74
2022/09/13 11:07:59;;;;;;;10.45;9.20;;;;;;;;;;5052711;28;20235;-74
2022/09/13 11:10:33;;;;;;;11.50;8.68;;;;;;;;;;5052967;28;20188;-74
2022/09/13 11:13:07;;;;;;;10.35;8.50;;;;;;;;;;5052842;28;20300;-73
2022/09/13 11:15:41;;;;;;;10.25;8.13;;;;;;;;;;5052676;28;20297;-73
2022/09/13 11:18:24;;;;;;;12.57;8.88;;;;;;;;;;5053707;28;20239;-74
2022/09/13 11:20:59;;;;;;;10.65;8.88;;;;;;;;;;5052764;28;20559;-74
2022/09/13 11:23:48;;;;;;;10.05;8.13;;;;;;;;;;5052455;28;20255;-73
2022/09/13 11:26:34;;;;;;;11.35;9.57;;;;;;;;;;5043626;28;20203;-73
2022/09/13 11:29:10;;;;;;;12.43;9.77;;;;;;;;;;5033071;28;20290;-76
2022/09/13 11:31:43;;;;;;;12.18;9.98;;;;;;;;;;5039541;28;20624;-76
2022/09/13 11:34:19;;;;;;;11.30;10.15;;;;;;;;;;5053370;28;20584;-75
2022/09/13 11:37:03;;;;;;;13.82;9.85;;;;;;;;;;5052501;28;20245;-73
2022/09/13 11:39:33;;;;;;;13.07;10.23;;;;;;;;;;5052139;28;20203;-73
2022/09/13 11:42:05;;;;;;;16.15;10.98;;;;;;;;;;5052722;28;20627;-74
2022/09/13 11:44:47;;;;;;;11.55;9.00;;;;;;;;;;5052416;28;20225;-73
2022/09/13 11:47:21;;;;;;;6.68;5.97;;;;;;;;;;5052549;28;20293;-73
2022/09/13 11:49:58;;;;;;;6.22;5.05;;;;;;;;;;5050479;28;20226;-74
2022/09/13 11:52:29;;;;;;;4.95;4.40;;;;;;;;;;5051622;28;20307;-76
2022/09/13 11:55:07;;;;;;;7.18;4.53;;;;;;;;;;5052321;28;20215;-76
2022/09/13 11:57:38;;;;;;;4.80;4.30;;;;;;;;;;5043822;28;20294;-76
2022/09/13 12:00:15;;;;;;;6.32;4.30;;;;;;;;;;5041927;28;20620;-76
2022/09/13 12:02:47;;;;;;;4.00;3.70;;;;;;;;;;5054816;28;20662;-76
2022/09/13 12:05:19;;;;;;;5.40;4.15;;;;;;;;;;5055278;28;20567;-77
2022/09/13 12:07:52;;;;;;;5.38;3.45;;;;;;;;;;5049656;28;20286;-76
2022/09/13 12:10:24;;;;;;;3.80;3.38;;;;;;;;;;5047648;28;20294;-76
2022/09/13 12:12:52;;;;;;;3.25;2.80;;;;;;;;;;5055234;28;20314;-76
2022/09/13 12:15:27;;;;;;;3.53;2.50;;;;;;;;;;5055757;28;20258;-75
2022/09/13 12:17:59;;;;;;;3.90;2.67;;;;;;;;;;5054911;28;20648;-76
2022/09/13 12:20:31;;;;;;;3.97;2.50;;;;;;;;;;5055520;28;20235;-73
2022/09/13 12:23:01;;;;;;;3.70;2.60;;;;;;;;;;5055307;28;20262;-74
2022/09/13 12:25:34;;;;;;;5.03;2.60;;;;;;;;;;5053182;28;20230;-74
2022/09/13 12:28:04;;;;;;;5.53;2.33;;;;;;;;;;5055805;28;20195;-74
2022/09/13 12:30:40;;;;;;;3.30;2.25;;;;;;;;;;5066363;28;20697;-74
2022/09/13 12:33:08;;;;;;;3.25;2.22;;;;;;;;;;5051945;28;20284;-74
2022/09/13 12:35:39;;;;;;;3.33;2.10;;;;;;;;;;5053233;28;20223;-74
2022/09/13 12:38:15;;;;;;;3.35;2.28;;;;;;;;;;5052272;28;20295;-74
2022/09/13 12:40:49;;;;;;;2.70;1.95;;;;;;;;;;5049937;28;20253;-74
2022/09/13 12:43:27;;;;;;;2.78;2.13;;;;;;;;;;5051164;28;20656;-74
2022/09/13 12:46:04;;;;;;;3.03;2.20;;;;;;;;;;5054875;28;20187;-74
2022/09/13 12:48:41;;;;;;;2.25;2.05;;;;;;;;;;5051000;28;20210;-74
2022/09/13 12:51:19;;;;;;;5.35;1.80;;;;;;;;;;5050646;28;20709;-74
2022/09/13 12:54:08;;;;;;;2.50;1.58;;;;;;;;;;5045435;28;20287;-74
2022/09/13 12:56:46;;;;;;;2.28;1.70;;;;;;;;;;5041995;28;20794;-74
2022/09/13 12:59:39;;;;;;;2.05;1.20;;;;;;;;;;5046583;28;20282;-74
2022/09/13 13:02:24;;;;;;;1.00;1.00;;;;;;;;;;5051549;28;20277;-74
2022/09/13 13:04:54;;;;;;;1.58;1.30;;;;;;;;;;5052478;28;20623;-74
2022/09/13 13:07:24;;;;;;;2.35;1.35;;;;;;;;;;5048584;28;20206;-74
2022/09/13 13:09:54;;;;;;;3.38;2.10;;;;;;;;;;5045267;28;20196;-73
2022/09/13 13:12:28;;;;;;;2.17;1.50;;;;;;;;;;5044730;28;20224;-74
2022/09/13 13:14:57;;;;;;;2.25;1.58;;;;;;;;;;5052819;28;20277;-74
2022/09/13 13:17:37;;;;;;;2.08;1.20;;;;;;;;;;5052714;28;20223;-74
2022/09/13 13:20:21;;;;;;;2.05;1.50;;;;;;;;;;5052600;28;20211;-74
2022/09/13 13:22:50;;;;;;;2.95;1.40;;;;;;;;;;5047402;28;20226;-75
2022/09/13 13:25:32;;;;;;;2.35;1.63;;;;;;;;;;5051504;28;20256;-75
2022/09/13 13:28:02;;;;;;;2.20;1.50;;;;;;;;;;4700329;28;9999683;-74
2022/09/13 13:30:52;;;;;;;2.88;1.30;;;;;;;;;;5047669;28;20210;-74
2022/09/13 13:33:30;;;;;;;4.20;1.45;;;;;;;;;;5043050;28;20211;-75
2022/09/13 13:36:21;;;;;;;2.70;1.30;;;;;;;;;;5045784;28;20211;-74
2022/09/13 13:38:50;;;;;;;2.85;1.30;;;;;;;;;;5049692;28;20195;-74
2022/09/13 13:41:39;;;;;;;2.05;1.40;;;;;;;;;;5049847;28;20227;-75
2022/09/13 13:44:22;;;;;;;3.50;1.38;;;;;;;;;;5048885;28;20241;-75
2022/09/13 13:46:52;;;;;;;3.10;1.50;;;;;;;;;;5045515;28;20654;-78
2022/09/13 13:49:44;;;;;;;2.08;1.10;;;;;;;;;;5047397;28;20222;-74
2022/09/13 13:52:36;;;;;;;2.58;1.08;;;;;;;;;;5048737;28;20230;-74
2022/09/13 13:55:24;;;;;;;1.55;0.95;;;;;;;;;;5047393;28;20286;-74
2022/09/13 13:58:00;;;;;;;2.80;1.10;;;;;;;;;;5050359;28;20671;-74
2022/09/13 14:00:33;;;;;;;3.88;1.23;;;;;;;;;;5049807;28;20253;-74
2022/09/13 14:03:10;;;;;;;2.35;1.40;;;;;;;;;;5050861;28;20196;-74
2022/09/13 14:05:43;;;;;;;1.65;0.75;;;;;;;;;;5047525;28;20860;-74
2022/09/13 14:08:32;;;;;;;3.08;1.20;;;;;;;;;;5051834;28;20624;-74
2022/09/13 14:11:04;;;;;;;3.45;1.50;;;;;;;;;;5038964;28;20739;-74
2022/09/13 14:13:44;;;;;;;3.05;1.50;;;;;;;;;;5051058;28;20222;-74
2022/09/13 14:16:21;;;;;;;4.50;1.33;;;;;;;;;;5033649;28;20219;-73
2022/09/13 14:19:08;;;;;;;2.40;1.00;;;;;;;;;;5051798;28;20199;-74
2022/09/13 14:21:38;;;;;;;2.30;1.20;;;;;;;;;;5052970;28;20663;-74
2022/09/13 14:24:10;;;;;;;3.67;1.30;;;;;;;;;;5051991;28;20294;-73
2022/09/13 14:26:39;;;;;;;4.45;1.00;;;;;;;;;;5051421;28;20233;-74
2022/09/13 14:29:08;;;;;;;2.70;1.10;;;;;;;;;;5052556;28;20199;-74
2022/09/13 14:31:37;;;;;;;4.00;1.45;;;;;;;;;;5051949;28;20250;-73
2022/09/13 14:34:06;;;;;;;6.88;1.25;;;;;;;;;;5040201;28;20235;-73
2022/09/13 14:36:49;;;;;;;2.70;1.00;;;;;;;;;;5050882;28;20305;-73
2022/09/13 14:39:19;;;;;;;1.88;1.00;;;;;;;;;;5049431;28;20286;-74
2022/09/13 14:41:47;;;;;;;1.80;1.08;;;;;;;;;;5050049;28;20227;-73
2022/09/13 14:47:07;;;;;;;1.38;0.60;;;;;;;;;;5042581;28;20274;-74
2022/09/13 14:49:36;;;;;;;1.40;0.80;;;;;;;;;;5049092;28;20652;-73
2022/09/13 14:52:07;;;;;;;2.22;1.50;;;;;;;;;;5040449;28;20311;-74
2022/09/13 14:54:39;;;;;;;3.25;1.83;;;;;;;;;;5036250;28;20219;-75
2022/09/13 14:57:09;;;;;;;3.58;1.63;;;;;;;;;;5050685;28;20211;-74
2022/09/13 14:59:43;;;;;;;2.67;1.20;;;;;;;;;;5051414;28;20238;-74
2022/09/13 15:02:17;;;;;;;3.33;1.70;;;;;;;;;;5040361;28;20231;-74
2022/09/13 15:04:48;;;;;;;2.25;1.45;;;;;;;;;;5052126;28;20202;-73
2022/09/13 15:07:20;;;;;;;3.33;2.20;;;;;;;;;;5053414;28;20612;-74
2022/09/13 15:09:51;;;;;;;4.13;1.30;;;;;;;;;;5046609;28;20191;-73
2022/09/13 15:12:24;;;;;;;4.57;1.05;;;;;;;;;;5049221;28;20226;-74